• Join FlightAware (Why Join?)
  • Login
  • US Flag 
03:33PM EDT


 

Airport Tracker/Info


-or-


 

Live Flight TrackerFlight Track Log ✈ AWI3594 ✈ 06-May-2013 ✈ KJAN - KDCA

Flight Track Log - Related Links

Times and Time Zones

All times are in EDT time to prevent confusion due to time zone crossing. See the AWI3594 flight status page for this flight to view local times or setup timezone preferences in your user account.

Time Position Orientation Groundspeed Altitude Reporting Facility
EDT Latitude Longitude Course Direction KTS MPH feet Rate Location/Type
07:58AM 32.2267 -89.9939 87° East 212 244 33,000  Level Memphis Center
07:59AM 32.3227 -89.7110 84° East  Level FlightAware Approximate
07:59AM 32.2453 -89.9103 75° East 214 246 5,700  Level Memphis Center
08:00AM 32.3326 -89.5920 84° East  Level FlightAware Approximate
08:00AM 32.2575 -89.8194 81° East 237 273 7,900  Level Memphis Center
08:01AM 32.3334 -89.4724 90° East  Level FlightAware Approximate
08:01AM 32.2694 -89.7258 81° East 271 312 9,500  Level Memphis Center
08:02AM 32.3428 -89.3549 68° East  Level FlightAware Approximate
08:02AM 32.2836 -89.6225 81° East 297 342 11,500  Level Memphis Center
08:03AM 32.3549 -89.2370 87° East  Level FlightAware Approximate
08:03AM 32.2953 -89.5167 83° East 311 358 13,100  Level Memphis Center
08:04AM 32.3609 -89.1175 87° East  Level FlightAware Approximate
08:04AM 32.3092 -89.3986 82° East 338 389 14,800  Level Memphis Center
08:05AM 32.3208 -89.2953 82° East 352 405 16,700 1,560 Climbing Memphis Center
08:06AM 32.3364 -89.1722 81° East 357 411 18,000 1,320 Climbing Memphis Center
08:07AM 32.3519 -89.0467 82° East 374 430 19,400 1,260 Climbing Memphis Center
08:08AM 32.3672 -88.9183 82° East 386 444 20,600 1,200 Climbing Memphis Center
08:09AM 32.3928 -88.7900 77° East 391 450 21,900 1,080 Climbing Memphis Center
08:11AM 32.5236 -88.5981 51° Northeast 370 426 23,900 960 Climbing Memphis Center
08:12AM 32.5953 -88.4956 50° Northeast 382 440 24,800 840 Climbing Memphis Center
08:13AM 32.6647 -88.3978 50° Northeast 388 447 25,600 780 Climbing Memphis Center
08:15AM 32.7931 -88.2047 52° Northeast 407 468 27,000 840 Climbing Atlanta Center
08:17AM 32.8795 -88.0508 50° Northeast  Level FlightAware Approximate
08:17AM 32.9464 -87.9844 50° Northeast 402 463 29,000  Level Atlanta Center
08:18AM 33.0033 -87.8928 53° Northeast 397 457 29,700 600 Climbing Atlanta Center
08:19AM 33.0733 -87.7919 50° Northeast 397 457 30,200 540 Climbing Atlanta Center
08:20AM 33.1478 -87.6808 51° Northeast 404 465 30,800 240 Climbing Atlanta Center
08:22AM 33.2347 -87.5235 51° Northeast  Level FlightAware Approximate
08:22AM 33.2936 -87.4633 51° Northeast 409 471 31,000  Level Atlanta Center
08:23AM 33.3678 -87.3519 51° Northeast 414 476 31,000  Level Atlanta Center
08:25AM 33.5133 -87.1333 51° Northeast 414 476 31,000  Level Atlanta Center
08:26AM 33.5869 -87.0236 51° Northeast 414 476 31,000  Level Atlanta Center
08:27AM 33.6583 -86.9139 52° Northeast 414 476 31,000  Level Atlanta Center
08:28AM 33.7358 -86.8117 48° Northeast 414 476 31,000  Level Atlanta Center
08:29AM 33.8133 -86.7117 47° Northeast 408 470 31,000  Level Atlanta Center
08:30AM 33.8925 -86.6114 46° Northeast 408 470 31,000  Level Atlanta Center
08:31AM 33.9719 -86.5111 46° Northeast 408 470 31,000  Level Atlanta Center
08:33AM 34.0751 -86.3678 49° Northeast  Level FlightAware Approximate
08:33AM 34.1261 -86.3072 49° Northeast 413 475 31,000  Level Atlanta Center
08:34AM 34.2031 -86.2064 47° Northeast 413 475 31,000  Level Atlanta Center
08:35AM 34.2842 -86.1003 47° Northeast 413 475 31,000  Level Atlanta Center
08:37AM 34.3828 -85.9514 47° Northeast  Level FlightAware Approximate
08:37AM 34.4439 -85.8925 47° Northeast 413 475 31,000  Level Atlanta Center
08:38AM 34.5206 -85.7883 48° Northeast 408 470 31,000  Level Atlanta Center
08:39AM 34.6014 -85.6817 47° Northeast 413 475 31,000  Level Atlanta Center
08:40AM 34.6822 -85.5744 47° Northeast 413 475 31,000  Level Atlanta Center
08:41AM 34.7628 -85.4672 48° Northeast 418 481 31,000  Level Atlanta Center
08:42AM 34.8411 -85.3625 48° Northeast 418 481 31,000  Level Atlanta Center
08:43AM 34.9194 -85.2572 48° Northeast 418 481 31,000  Level Atlanta Center
08:44AM 34.9933 -85.1519 49° Northeast 412 474 31,000  Level Atlanta Center
08:45AM 35.0717 -85.0489 47° Northeast 412 474 31,000 240 Level Atlanta Center
08:47AM 35.1743 -84.9054 49° Northeast  Level FlightAware Approximate
08:47AM 35.2233 -84.8422 49° Northeast 412 474 31,800  Level Atlanta Center
08:48AM 35.2989 -84.7386 48° Northeast 412 474 32,100 360 Climbing Atlanta Center
08:49AM 35.3747 -84.6322 49° Northeast 412 474 32,600 360 Climbing Atlanta Center
08:50AM 35.4503 -84.5283 48° Northeast 412 474 32,900 180 Climbing Atlanta Center
08:51AM 35.5278 -84.4242 48° Northeast 412 474 33,000  Climbing Atlanta Center
08:52AM 35.6033 -84.3147 50° Northeast 412 474 33,000  Level Atlanta Center
08:53AM 35.6828 -84.2050 48° Northeast 412 474 33,000  Level Atlanta Center
08:54AM 35.7619 -84.0975 48° Northeast 412 474 33,000  Level Atlanta Center
08:55AM 35.8414 -83.9875 48° Northeast 412 474 33,000  Level Atlanta Center
08:56AM 35.9225 -83.8747 48° Northeast 417 480 33,000  Level Atlanta Center
08:58AM 36.0753 -83.6517 50° Northeast 426 490 33,000  Level Indianapolis Center
08:59AM 36.1528 -83.5414 49° Northeast 425 489 33,000  Level Indianapolis Center
09:00AM 36.2386 -83.4222 48° Northeast 421 484 33,000  Level Indianapolis Center
09:01AM 36.3122 -83.3125 50° Northeast 415 478 33,000  Level Indianapolis Center
09:02AM 36.3883 -83.2031 49° Northeast 417 480 33,000  Level Indianapolis Center
09:03AM 36.4778 -83.0736 49° Northeast 423 487 33,000  Level Indianapolis Center
09:05AM 36.5660 -82.9426 50° Northeast  Level FlightAware Approximate
09:07AM 36.7886 -82.6200 50° Northeast 437 503 33,000  Level Indianapolis Center
09:10AM 36.8917 -82.3638 63° Northeast  Level Estimated
09:12AM 37.0330 -82.2417 50° Northeast  Level FlightAware Approximate
09:12AM 37.1814 -82.0356 64° Northeast 422 486 33,000  Level Indianapolis Center
09:13AM 37.0996 -82.1411 50° Northeast  Level FlightAware Approximate
09:13AM 37.2581 -81.9217 50° Northeast 426 490 33,000  Level Indianapolis Center
09:15AM 37.3469 -81.7886 50° Northeast 427 491 33,000  Level Indianapolis Center
09:16AM 37.4219 -81.6761 50° Northeast 421 484 33,000  Level Indianapolis Center
09:17AM 37.2160 -81.5442 63° Northeast  Level Estimated
09:17AM 37.4958 -81.5611 51° Northeast 422 486 33,000  Level Indianapolis Center
09:18AM 37.2618 -81.4265 64° Northeast  Level Estimated
09:18AM 37.6208 -81.3733 50° Northeast 427 491 33,000  Level Washington Center
09:19AM 37.6972 -81.2586 50° Northeast 415 478 33,000  Level Washington Center
09:20AM 37.7692 -81.1458 51° Northeast 415 478 33,000  Level Washington Center
09:21AM 37.8214 -81.0128 64° Northeast 410 472 33,000  Level Washington Center
09:22AM 37.8667 -80.8819 66° East 410 472 33,000  Level Washington Center
09:23AM 37.9169 -80.7328 67° East 410 472 33,000 -300 Level Washington Center
09:24AM 37.9622 -80.5989 67° East 410 472 32,500 -840 Descending Washington Center
09:26AM 38.0528 -80.3228 67° East 415 478 30,600 -1,020 Descending Washington Center
09:28AM 38.1258 -80.0969 68° East 442 509 29,000 -1,020 Descending Indianapolis Center
09:28AM 38.1467 -80.0489 61° Northeast 435 501 28,600 -1,020 Descending Washington Center
09:29AM 38.1917 -79.9061 68° East 435 501 27,600 -1,020 Descending Washington Center
09:30AM 38.2361 -79.7658 68° East 435 501 26,600 -600 Descending Washington Center
09:32AM 38.3089 -79.5317 68° East 404 465 26,000 -240 Descending Indianapolis Center
09:33AM 38.3531 -79.3992 67° East 412 474 26,000  Level Indianapolis Center
09:33AM 38.3731 -79.3525 61° Northeast 406 467 26,000  Level Washington Center
09:34AM 38.4147 -79.2167 69° East 406 467 26,000 -300 Level Washington Center
09:36AM 38.4575 -79.0657 70° East  Level FlightAware Approximate
09:36AM 38.4892 -78.9444 70° East 406 467 25,100  Level Washington Center
09:38AM 38.4989 -78.7828 74° East  Level FlightAware Approximate
09:38AM 38.5275 -78.6836 74° East 391 450 22,300  Level Washington Center
09:39AM 38.5475 -78.5517 79° East 391 450 21,100 -1,260 Descending Washington Center
09:40AM 38.5694 -78.4250 77° East 385 443 19,800 -1,380 Descending Washington Center
09:41AM 38.5867 -78.3142 79° East 353 406 18,400 -1,560 Descending Washington Center
09:42AM 38.6650 -78.2586 29° Northeast 291 335 16,800 -1,680 Descending Washington Center
09:44AM 38.7833 -78.1500 36° Northeast 318 366 13,700 -960 Descending Potomac TRACON
09:46AM 38.6933 -77.9936 126° Southeast 229 264 13,000 -240 Descending Washington Center
09:47AM 38.7142 -77.8906 75° East 258 297 13,000 -300 Level Washington Center
09:48AM 38.7556 -77.7958 61° Northeast 276 318 12,400 -1,140 Descending Washington Center
09:50AM 38.8500 -77.6333 53° Northeast 283 326 10,100 -1,320 Descending Potomac TRACON
09:51AM 38.8833 -77.5500 63° Northeast 265 305 9,000 -1,020 Descending Potomac TRACON
09:52AM 38.9000 -77.4667 76° East 233 268 8,000 -900 Descending Potomac TRACON
09:53AM 38.9000 -77.4000 90° East 190 219 7,200 -1,080 Descending Potomac TRACON
09:54AM 38.8667 -77.3500 131° Southeast 188 216 6,000 -660 Descending Potomac TRACON
09:55AM 38.8500 -77.3000 113° Southeast 190 219 6,000 -600 Level Potomac TRACON
09:57AM 38.8000 -77.1833 119° Southeast 182 209 4,400 -720 Descending Potomac TRACON
09:58AM 38.7667 -77.1333 131° Southeast 185 213 4,000 -240 Descending Potomac TRACON
09:59AM 38.7333 -77.1167 159° South 190 219 4,000 -120 Level Potomac TRACON
10:00AM 38.6667 -77.1167 180° South 186 214 3,800 -720 Descending Potomac TRACON
10:01AM 38.6500 -77.0667 113° Southeast 186 214 2,500 -600 Descending Potomac TRACON
10:03AM 38.7333 -77.0333 17° North 188 216 2,000 -300 Descending Potomac TRACON